Time;durP1;ratioP1;P1;durP2;ratioP2;P2;SDS_P1;SDS_P2;PMS_P1;PMS_P2;Temp;Humidity;BMP_temperature;BMP_pressure;BME280_temperature;BME280_humidity;BME280_pressure;Samples;Min_cycle;Max_cycle;Signal;HPM_P1;HPM_P2
2023/10/02 00:01:24;;;;;;;5.97;5.38;;;;;;;16.07;nan;100168.69;4995814;28;20208;-79
2023/10/02 00:04:16;;;;;;;14.43;5.97;;;;;;;16.05;nan;100175.91;4998092;28;20883;-77
2023/10/02 00:06:39;;;;;;;7.78;5.10;;;;;;;16.00;nan;100171.94;4996170;28;20277;-79
2023/10/02 00:09:04;;;;;;;5.88;3.95;;;;;;;15.96;nan;100176.66;4995274;28;20201;-77
2023/10/02 00:11:39;;;;;;;10.80;5.00;;;;;;;15.93;nan;100183.03;4995952;28;20200;-78
2023/10/02 00:14:23;;;;;;;6.32;4.25;;;;;;;15.88;nan;100185.19;4997503;28;20199;-77
2023/10/02 00:16:59;;;;;;;5.32;3.30;;;;;;;15.84;nan;100177.56;4997671;28;20224;-77
2023/10/02 00:19:57;;;;;;;5.82;3.58;;;;;;;15.82;nan;100182.13;4996385;28;20203;-80
2023/10/02 00:22:38;;;;;;;4.72;3.20;;;;;;;15.79;nan;100179.72;4997921;28;20214;-79
2023/10/02 00:25:07;;;;;;;4.00;3.25;;;;;;;15.79;nan;100179.72;4993333;28;20870;-77
2023/10/02 00:27:34;;;;;;;11.93;5.55;;;;;;;15.76;nan;100185.25;4994482;28;20211;-77
2023/10/02 00:30:00;;;;;;;5.93;3.70;;;;;;;15.73;nan;100181.03;4979969;28;20239;-80
2023/10/02 00:32:29;;;;;;;6.45;4.95;;;;;;;15.73;nan;100175.75;4981400;28;20196;-77
2023/10/02 00:34:55;;;;;;;6.43;5.35;;;;;;;15.73;nan;100175.75;4999555;28;20340;-77
2023/10/02 00:37:21;;;;;;;11.57;6.60;;;;;;;15.74;nan;100172.13;4979801;28;20434;-78
2023/10/02 00:39:52;;;;;;;10.70;7.03;;;;;;;15.75;nan;100173.00;4979911;28;20196;-77
2023/10/02 00:42:24;;;;;;;11.13;6.78;;;;;;;15.72;nan;100163.47;4995114;28;20743;-80
2023/10/02 00:44:56;;;;;;;13.43;5.57;;;;;;;15.70;nan;100163.56;4975400;28;20367;-77
2023/10/02 00:47:41;;;;;;;10.27;6.78;;;;;;;15.67;nan;100171.72;4978273;28;20570;-77
2023/10/02 00:50:13;;;;;;;9.05;5.40;;;;;;;15.63;nan;100161.47;4996842;28;20212;-78
2023/10/02 00:52:43;;;;;;;9.88;6.60;;;;;;;15.57;nan;100156.66;4995387;28;20232;-78
2023/10/02 00:55:12;;;;;;;6.70;5.25;;;;;;;15.53;nan;100158.69;4994692;28;20220;-77
2023/10/02 00:57:40;;;;;;;9.70;5.80;;;;;;;15.50;nan;100158.94;4994069;28;20228;-77
2023/10/02 01:00:21;;;;;;;9.20;4.78;;;;;;;15.49;nan;100151.94;4993753;28;20216;-78
2023/10/02 01:02:57;;;;;;;9.02;5.47;;;;;;;15.49;nan;100162.53;4996544;28;20245;-78
2023/10/02 01:05:30;;;;;;;10.15;6.00;;;;;;;15.47;nan;100159.13;4994923;28;20214;-77
2023/10/02 01:07:57;;;;;;;9.85;5.70;;;;;;;15.47;nan;100157.34;4979072;28;20216;-81
2023/10/02 01:10:29;;;;;;;8.32;6.05;;;;;;;15.47;nan;100162.66;4995721;28;20789;-77
2023/10/02 01:13:01;;;;;;;7.95;4.90;;;;;;;15.41;nan;100155.16;4977926;28;20241;-80
2023/10/02 01:15:27;;;;;;;7.38;4.45;;;;;;;15.35;nan;100146.84;4993291;28;20273;-78
2023/10/02 01:17:54;;;;;;;8.15;4.75;;;;;;;15.33;nan;100146.94;4996498;28;20224;-78
2023/10/02 01:20:32;;;;;;;11.15;5.82;;;;;;;15.34;nan;100150.41;4978301;28;20210;-78
2023/10/02 01:23:16;;;;;;;11.43;5.40;;;;;;;15.33;nan;100143.44;4980455;28;20681;-77
2023/10/02 01:25:42;;;;;;;11.57;7.85;;;;;;;15.32;nan;100150.56;4994080;28;20218;-79
2023/10/02 01:28:10;;;;;;;10.90;8.27;;;;;;;15.31;nan;100148.88;4997263;28;20207;-77
2023/10/02 01:30:36;;;;;;;9.77;5.63;;;;;;;15.30;nan;100146.34;4996242;28;20218;-81
2023/10/02 01:33:12;;;;;;;9.17;5.47;;;;;;;15.27;nan;100142.94;4994640;28;20731;-78
2023/10/02 01:35:39;;;;;;;9.90;5.55;;;;;;;15.25;nan;100147.50;4993150;28;20438;-77
2023/10/02 01:38:14;;;;;;;8.65;5.22;;;;;;;15.23;nan;100146.81;4996850;28;20200;-78
2023/10/02 01:40:43;;;;;;;13.02;6.30;;;;;;;15.21;nan;100138.13;4975882;28;20199;-78
2023/10/02 01:43:15;;;;;;;11.50;6.07;;;;;;;15.19;nan;100137.38;4996556;28;20587;-80
2023/10/02 01:45:44;;;;;;;13.48;6.10;;;;;;;15.17;nan;100135.81;4979556;28;20309;-77
2023/10/02 01:48:36;;;;;;;7.45;5.68;;;;;;;15.11;nan;100137.09;4979074;28;20262;-79
2023/10/02 01:51:16;;;;;;;7.80;5.78;;;;;;;15.04;nan;100136.72;4993776;28;20286;-78
2023/10/02 01:53:42;;;;;;;8.68;5.97;;;;;;;15.03;nan;100129.72;4978265;28;20273;-77
2023/10/02 01:56:11;;;;;;;11.25;5.45;;;;;;;15.02;nan;100133.34;4994391;28;20239;-79
2023/10/02 01:58:41;;;;;;;10.48;6.50;;;;;;;15.01;nan;100130.81;4980106;28;20218;-77
2023/10/02 02:01:11;;;;;;;9.00;6.20;;;;;;;14.99;nan;100130.94;4997139;28;20245;-77
2023/10/02 02:03:42;;;;;;;10.55;5.68;;;;;;;14.96;nan;100125.00;4995245;28;20195;-78
2023/10/02 02:06:08;;;;;;;12.23;6.45;;;;;;;14.91;nan;100125.38;4978883;28;20644;-79
2023/10/02 02:08:40;;;;;;;8.68;5.40;;;;;;;14.89;nan;100126.44;4997639;28;20603;-80
2023/10/02 02:11:20;;;;;;;10.85;6.22;;;;;;;14.87;nan;100120.41;4979696;28;20242;-79
2023/10/02 02:13:55;;;;;;;7.35;5.22;;;;;;;14.85;nan;100122.31;4979109;28;20202;-78
2023/10/02 02:16:30;;;;;;;10.30;5.95;;;;;;;14.82;nan;100113.66;4979389;28;20529;-77
2023/10/02 02:18:57;;;;;;;8.13;4.78;;;;;;;14.81;nan;100113.75;4998727;28;20549;-77
2023/10/02 02:21:24;;;;;;;8.85;5.60;;;;;;;14.82;nan;100118.97;5000944;28;20210;-81
2023/10/02 02:24:03;;;;;;;10.70;6.63;;;;;;;14.85;nan;100115.22;5001321;28;20214;-79
2023/10/02 02:26:33;;;;;;;7.57;5.15;;;;;;;14.82;nan;100111.03;4999523;28;20213;-80
2023/10/02 02:29:02;;;;;;;7.65;5.22;;;;;;;14.83;nan;100111.84;5000651;28;21215;-78
2023/10/02 02:31:29;;;;;;;8.98;5.68;;;;;;;14.83;nan;100106.56;5000829;28;20298;-79
2023/10/02 02:34:14;;;;;;;9.13;5.55;;;;;;;14.80;nan;100107.63;5001129;28;20651;-78
2023/10/02 02:36:41;;;;;;;10.75;6.38;;;;;;;14.77;nan;100107.88;4983585;28;20683;-77
2023/10/02 02:39:15;;;;;;;9.80;6.50;;;;;;;14.76;nan;100114.09;4999835;28;20243;-82
2023/10/02 02:42:18;;;;;;;14.80;6.47;;;;;;;14.75;nan;100108.94;4999837;28;20199;-79
2023/10/02 02:44:49;;;;;;;9.32;6.03;;;;;;;14.74;nan;100108.09;4995338;28;20214;-77
2023/10/02 02:47:16;;;;;;;9.13;6.30;;;;;;;14.73;nan;100103.75;4998285;28;20226;-77
2023/10/02 02:49:53;;;;;;;7.55;5.35;;;;;;;14.72;nan;100103.88;4999368;28;20679;-77
2023/10/02 02:52:24;;;;;;;8.90;6.28;;;;;;;14.69;nan;100102.28;4997828;28;20687;-77
2023/10/02 02:55:15;;;;;;;10.93;5.20;;;;;;;14.68;nan;100103.22;4998873;28;20204;-81
2023/10/02 02:57:45;;;;;;;11.95;5.30;;;;;;;14.66;nan;100102.50;5060509;22;20222;-77
2023/10/02 03:00:31;;;;;;;9.68;5.32;;;;;;;14.65;nan;100100.81;5023507;28;20353;-78
2023/10/02 03:03:00;;;;;;;10.63;5.72;;;;;;;14.64;nan;100106.22;5025530;28;20729;-78
2023/10/02 03:05:38;;;;;;;10.85;5.45;;;;;;;14.60;nan;100097.66;5028454;28;20218;-78
2023/10/02 03:08:05;;;;;;;12.77;6.15;;;;;;;14.56;nan;100104.97;5022320;28;20482;-78
2023/10/02 03:10:40;;;;;;;8.82;6.03;;;;;;;14.54;nan;100104.22;5018036;28;20213;-78
2023/10/02 03:13:16;;;;;;;7.82;5.28;;;;;;;14.50;nan;100097.47;5009634;28;20609;-78
2023/10/02 03:15:45;;;;;;;8.80;4.53;;;;;;;14.47;nan;100105.59;5012384;28;20190;-77
2023/10/02 03:18:30;;;;;;;6.57;4.85;;;;;;;14.43;nan;100104.13;5014710;28;20509;-77
2023/10/02 03:23:38;;;;;;;10.48;6.35;;;;;;;14.37;nan;100100.13;5012954;28;20194;-78
2023/10/02 03:29:02;;;;;;;8.80;6.25;;;;;;;14.33;nan;100103.94;5011009;28;20210;-79
2023/10/02 03:31:43;;;;;;;6.65;5.13;;;;;;;14.33;nan;100108.38;5010622;28;20198;-78
2023/10/02 03:34:28;;;;;;;9.07;5.88;;;;;;;14.31;nan;100105.88;5016159;28;20205;-78
2023/10/02 03:37:07;;;;;;;12.65;6.90;;;;;;;14.27;nan;100104.38;5017884;28;20789;-79
2023/10/02 03:39:52;;;;;;;9.63;5.80;;;;;;;14.17;nan;100104.19;5019260;28;20202;-78
2023/10/02 03:42:31;;;;;;;11.05;6.95;;;;;;;14.09;nan;100105.69;5020770;28;20194;-78
2023/10/02 03:44:57;;;;;;;11.35;6.25;;;;;;;14.00;nan;100108.97;5021177;28;20217;-79
2023/10/02 03:47:24;;;;;;;8.07;4.85;;;;;;;13.96;nan;100111.00;5022468;28;20202;-79
2023/10/02 03:49:50;;;;;;;14.15;6.38;;;;;;;13.95;nan;100112.75;5018760;28;20209;-78
2023/10/02 03:52:19;;;;;;;10.10;6.90;;;;;;;13.95;nan;100114.56;5021674;28;20243;-78
2023/10/02 03:54:46;;;;;;;9.13;6.03;;;;;;;13.92;nan;100112.16;5020577;28;20190;-79
2023/10/02 03:58:02;;;;;;;12.00;5.97;;;;;;;13.85;nan;100109.09;5022064;28;20226;-79
2023/10/02 04:00:18;;;;;;;10.77;5.38;;;;;;;13.73;nan;100112.56;5012259;28;20674;-79
2023/10/02 04:02:46;;;;;;;10.70;5.90;;;;;;;13.67;nan;100107.72;5019500;28;20190;-78
2023/10/02 04:05:30;;;;;;;9.60;4.80;;;;;;;13.67;nan;100111.19;5016624;28;20219;-76
2023/10/02 04:08:12;;;;;;;10.60;6.40;;;;;;;13.70;nan;100110.16;5016526;28;20933;-76
2023/10/02 04:10:51;;;;;;;7.85;6.15;;;;;;;13.66;nan;100109.53;5017220;28;20465;-76
2023/10/02 04:13:27;;;;;;;11.35;5.50;;;;;;;13.60;nan;100109.06;5018807;28;20206;-77
2023/10/02 04:15:53;;;;;;;9.57;6.63;;;;;;;13.52;nan;100103.47;5013339;28;20193;-76
2023/10/02 04:18:45;;;;;;;7.85;4.93;;;;;;;13.44;nan;100112.75;5016085;28;20732;-76
2023/10/02 04:21:12;;;;;;;11.07;5.68;;;;;;;13.35;nan;100115.19;5015997;28;20293;-76
2023/10/02 04:23:41;;;;;;;11.15;6.57;;;;;;;13.27;nan;100115.69;5018412;28;20195;-76
2023/10/02 04:26:19;;;;;;;10.80;5.60;;;;;;;13.23;nan;100114.16;5010440;28;20361;-76
2023/10/02 04:28:55;;;;;;;8.25;5.97;;;;;;;13.23;nan;100117.66;5013818;28;20263;-76
2023/10/02 04:31:29;;;;;;;8.68;5.43;;;;;;;13.27;nan;100118.31;5017229;28;20194;-76
2023/10/02 04:34:15;;;;;;;9.52;5.93;;;;;;;13.27;nan;100110.41;5018846;28;20252;-76
2023/10/02 04:36:42;;;;;;;7.32;6.28;;;;;;;13.23;nan;100114.16;5019048;28;20678;-76
2023/10/02 04:42:11;;;;;;;9.75;5.80;;;;;;;13.23;nan;100124.69;5013419;28;20202;-76
2023/10/02 04:44:45;;;;;;;9.07;5.70;;;;;;;13.27;nan;100123.59;5015437;28;20245;-76
2023/10/02 04:47:17;;;;;;;8.88;4.65;;;;;;;13.29;nan;100121.72;5016638;28;20226;-76
2023/10/02 04:52:53;;;;;;;10.90;5.95;;;;;;;13.33;nan;100122.34;5018334;28;20206;-77
2023/10/02 04:55:16;;;;;;;8.57;5.68;;;;;;;13.35;nan;100120.47;5016595;28;20701;-77
2023/10/02 04:57:42;;;;;;;9.88;6.15;;;;;;;13.37;nan;100127.31;5012994;28;20637;-77
2023/10/02 05:00:32;;;;;;;11.93;5.93;;;;;;;13.38;nan;100121.09;5014731;28;20291;-77
2023/10/02 05:05:47;;;;;;;6.38;4.75;;;;;;;13.44;nan;100125.09;5012386;28;20198;-76
2023/10/02 05:08:21;;;;;;;10.00;6.13;;;;;;;13.44;nan;100125.94;5017259;28;20554;-77
2023/10/02 05:10:56;;;;;;;11.60;6.38;;;;;;;13.43;nan;100131.34;5012700;28;20268;-77
2023/10/02 05:16:12;;;;;;;8.32;4.68;;;;;;;13.35;nan;100134.50;5013718;28;20234;-76
2023/10/02 05:18:51;;;;;;;6.72;5.05;;;;;;;13.33;nan;100128.47;5015153;28;20629;-76
2023/10/02 05:21:17;;;;;;;12.55;5.50;;;;;;;13.27;nan;100132.34;5016234;28;20283;-76
2023/10/02 05:24:01;;;;;;;9.43;5.60;;;;;;;13.26;nan;100130.69;5015729;28;20598;-76
2023/10/02 05:26:32;;;;;;;8.55;4.90;;;;;;;13.21;nan;100130.09;5015344;28;20850;-76
2023/10/02 05:28:59;;;;;;;8.20;4.80;;;;;;;13.18;nan;100134.75;5016033;28;20198;-76
2023/10/02 05:31:25;;;;;;;8.18;5.18;;;;;;;13.16;nan;100134.84;5017129;28;20555;-76
2023/10/02 05:33:52;;;;;;;10.77;5.68;;;;;;;13.11;nan;100138.72;5018570;28;20555;-76
2023/10/02 05:36:21;;;;;;;10.63;6.63;;;;;;;13.06;nan;100144.28;5014034;28;20190;-76
2023/10/02 05:39:16;;;;;;;11.30;6.22;;;;;;;13.07;nan;100148.63;5013693;28;20234;-76
2023/10/02 05:41:44;;;;;;;12.77;8.32;;;;;;;13.09;nan;100151.16;5017231;28;20548;-76
2023/10/02 05:44:19;;;;;;;9.23;6.95;;;;;;;13.03;nan;100158.50;5016451;28;20198;-75
2023/10/02 05:46:56;;;;;;;8.90;6.05;;;;;;;13.00;nan;100157.88;5017390;28;20198;-76
2023/10/02 05:49:26;;;;;;;13.70;7.53;;;;;;;12.99;nan;100154.41;5011368;28;20256;-75
2023/10/02 05:51:55;;;;;;;8.13;5.45;;;;;;;13.00;nan;100153.44;5017669;28;20233;-76
2023/10/02 05:54:35;;;;;;;10.85;7.30;;;;;;;13.04;nan;100159.34;5018376;28;20205;-76
2023/10/02 05:57:09;;;;;;;12.07;7.25;;;;;;;13.11;nan;100163.28;5021696;28;20393;-76
2023/10/02 05:59:45;;;;;;;13.68;7.07;;;;;;;13.14;nan;100164.88;5017476;28;20195;-76
2023/10/02 06:02:19;;;;;;;12.23;6.35;;;;;;;13.15;nan;100161.28;5019492;28;20687;-76
2023/10/02 06:04:49;;;;;;;12.68;6.78;;;;;;;13.19;nan;100157.53;5021413;28;20666;-75
2023/10/02 06:07:43;;;;;;;10.20;6.55;;;;;;;13.26;nan;100164.13;5019717;28;20655;-76
2023/10/02 06:10:25;;;;;;;16.75;7.72;;;;;;;13.32;nan;100168.16;5020183;28;20206;-76
2023/10/02 06:13:05;;;;;;;15.45;6.15;;;;;;;13.31;nan;100164.66;5021020;28;20206;-76
2023/10/02 06:15:46;;;;;;;12.90;7.95;;;;;;;13.28;nan;100168.38;5018341;28;20194;-77
2023/10/02 06:18:24;;;;;;;9.85;6.03;;;;;;;13.30;nan;100164.75;5022873;28;20291;-76
2023/10/02 06:21:03;;;;;;;12.23;6.43;;;;;;;13.36;nan;100170.47;5018049;28;20202;-75
2023/10/02 06:23:38;;;;;;;10.20;7.07;;;;;;;13.44;nan;100168.16;5018364;28;20194;-76
2023/10/02 06:26:06;;;;;;;13.70;6.60;;;;;;;13.54;nan;100170.22;5016681;28;20385;-76
2023/10/02 06:28:31;;;;;;;10.48;7.43;;;;;;;13.60;nan;100161.88;5019160;28;20663;-76
2023/10/02 06:30:58;;;;;;;11.00;6.53;;;;;;;13.68;nan;100164.84;5018437;28;20253;-76
2023/10/02 06:33:24;;;;;;;17.65;6.40;;;;;;;13.73;nan;100173.28;5020552;28;20197;-76
2023/10/02 06:35:57;;;;;;;12.48;7.55;;;;;;;13.78;nan;100170.34;5021687;28;20197;-76
2023/10/02 06:38:23;;;;;;;11.48;7.30;;;;;;;13.88;nan;100164.34;5020140;28;20211;-76
2023/10/02 06:40:57;;;;;;;8.20;6.40;;;;;;;13.96;nan;100166.47;5020390;28;20207;-76
2023/10/02 06:43:31;;;;;;;14.85;8.95;;;;;;;14.03;nan;100162.41;5017224;28;20244;-76
2023/10/02 06:46:15;;;;;;;9.27;6.60;;;;;;;14.10;nan;100160.22;5017730;28;20215;-76
2023/10/02 06:48:46;;;;;;;11.18;7.82;;;;;;;14.20;nan;100165.69;5018533;28;20297;-75
2023/10/02 06:51:15;;;;;;;11.10;7.50;;;;;;;14.30;nan;100166.75;5016629;28;20680;-76
2023/10/02 06:53:42;;;;;;;6.78;6.10;;;;;;;14.41;nan;100171.28;5017033;28;20190;-76
2023/10/02 06:56:12;;;;;;;13.63;7.65;;;;;;;14.52;nan;100164.28;5019491;28;20206;-76
2023/10/02 06:58:52;;;;;;;9.73;7.68;;;;;;;14.64;nan;100169.69;5020265;28;20305;-76
2023/10/02 07:01:18;;;;;;;14.88;8.95;;;;;;;14.76;nan;100179.38;5020043;28;20221;-76
2023/10/02 07:03:53;;;;;;;12.43;8.93;;;;;;;14.87;nan;100179.44;5019370;28;20182;-75
2023/10/02 07:06:23;;;;;;;16.63;8.20;;;;;;;14.99;nan;100178.56;5019980;28;20441;-76
2023/10/02 07:09:09;;;;;;;18.17;10.18;;;;;;;15.14;nan;100179.22;5020080;28;20221;-77
2023/10/02 07:11:35;;;;;;;11.70;8.05;;;;;;;15.31;nan;100185.06;5018270;28;20303;-76
2023/10/02 07:14:04;;;;;;;21.52;10.48;;;;;;;15.40;nan;100174.66;5018529;28;20206;-76
2023/10/02 07:16:32;;;;;;;14.23;9.43;;;;;;;15.54;nan;100180.72;5016679;28;20561;-76
2023/10/02 07:18:58;;;;;;;25.63;15.45;;;;;;;15.66;nan;100175.34;5018746;28;20252;-76
2023/10/02 07:21:26;;;;;;;21.50;16.13;;;;;;;15.78;nan;100181.53;5016949;28;20663;-76
2023/10/02 07:23:51;;;;;;;23.40;14.52;;;;;;;15.86;nan;100175.66;5018923;28;20457;-76
2023/10/02 07:26:45;;;;;;;20.23;13.00;;;;;;;15.97;nan;100182.78;5016402;28;20202;-75
2023/10/02 07:29:07;;;;;;;18.00;9.70;;;;;;;16.08;nan;100180.97;5019788;28;20199;-76
2023/10/02 07:31:32;;;;;;;21.60;9.50;;;;;;;16.19;nan;100174.00;5018803;28;20630;-75
2023/10/02 07:33:58;;;;;;;20.33;10.03;;;;;;;16.30;nan;100174.84;5014305;28;20212;-75
2023/10/02 07:36:26;;;;;;;16.63;11.23;;;;;;;16.42;nan;100180.13;5014340;28;20496;-76
2023/10/02 07:38:54;;;;;;;20.15;10.75;;;;;;;16.51;nan;100174.13;5015424;28;20207;-76
2023/10/02 07:41:23;;;;;;;15.50;9.25;;;;;;;16.60;nan;100171.56;5016712;28;20227;-76
2023/10/02 07:43:52;;;;;;;18.60;10.70;;;;;;;16.70;nan;100170.84;5018063;28;20723;-76
2023/10/02 07:46:21;;;;;;;13.82;9.40;;;;;;;16.78;nan;100169.28;5020197;28;20223;-76
2023/10/02 07:48:57;;;;;;;20.27;10.50;;;;;;;16.88;nan;100166.75;5020283;28;20211;-75
2023/10/02 07:51:35;;;;;;;16.50;9.38;;;;;;;16.97;nan;100168.66;5016331;28;20207;-76
2023/10/02 07:54:01;;;;;;;25.38;9.10;;;;;;;17.13;nan;100168.25;5016143;28;20190;-76
2023/10/02 07:56:29;;;;;;;18.58;9.05;;;;;;;17.69;nan;100167.16;5015502;28;20232;-76
2023/10/02 07:58:55;;;;;;;13.10;8.35;;;;;;;18.61;nan;100166.38;5013739;28;20670;-76
2023/10/02 08:01:27;;;;;;;20.90;9.60;;;;;;;19.58;nan;100162.00;5016009;28;20209;-76
2023/10/02 08:03:55;;;;;;;15.20;8.33;;;;;;;20.31;nan;100156.09;5015779;28;20202;-76
2023/10/02 08:06:23;;;;;;;18.07;9.80;;;;;;;21.03;nan;100156.25;5014979;28;20814;-76
2023/10/02 08:09:35;;;;;;;14.50;8.20;;;;;;;21.86;nan;100151.47;5017573;28;20464;-76
2023/10/02 08:11:38;;;;;;;20.67;10.30;;;;;;;22.46;nan;100154.16;5017118;28;20460;-76
2023/10/02 08:14:05;;;;;;;15.67;10.07;;;;;;;22.99;nan;100156.69;5019957;28;20534;-78
2023/10/02 08:16:34;;;;;;;21.27;10.20;;;;;;;23.48;nan;100154.06;5013993;28;20571;-78
2023/10/02 08:19:08;;;;;;;19.23;10.13;;;;;;;23.89;nan;100149.50;5017141;28;20448;-78
2023/10/02 08:21:35;;;;;;;16.63;9.30;;;;;;;24.27;nan;100152.44;5017265;28;21042;-78
2023/10/02 08:24:05;;;;;;;22.47;11.37;;;;;;;24.56;nan;100149.16;5015451;28;20999;-78
2023/10/02 08:26:41;;;;;;;18.93;10.00;;;;;;;25.00;nan;100145.03;5015188;28;20458;-77
2023/10/02 08:29:13;;;;;;;17.27;10.07;;;;;;;25.41;nan;100148.31;5018190;28;20478;-78
2023/10/02 08:31:49;;;;;;;18.50;9.90;;;;;;;25.54;nan;100148.50;5019543;28;20965;-77
2023/10/02 08:34:19;;;;;;;17.20;10.13;;;;;;;25.78;nan;100144.75;5017409;28;20452;-78
2023/10/02 08:36:46;;;;;;;17.33;10.23;;;;;;;26.15;nan;100140.38;5018194;28;20432;-78
2023/10/02 08:39:11;;;;;;;16.80;9.70;;;;;;;26.54;nan;100135.72;5017473;28;20838;-77
2023/10/02 08:44:37;;;;;;;16.80;9.27;;;;;;;26.92;nan;100139.06;4987224;28;20230;-90
2023/10/02 08:47:24;;;;;;;14.23;9.17;;;;;;;27.06;nan;100130.09;4976112;28;20441;-90
2023/10/02 08:50:11;;;;;;;14.00;9.77;;;;;;;27.19;nan;100133.97;4995792;28;20431;-90
2023/10/02 08:52:49;;;;;;;22.73;10.33;;;;;;;27.17;nan;100127.91;4974361;28;20963;-90
2023/10/02 08:55:35;;;;;;;18.00;10.30;;;;;;;27.30;nan;100128.03;4997084;28;20548;-91
2023/10/02 08:58:16;;;;;;;19.27;9.93;;;;;;;27.39;nan;100126.06;4981499;28;20457;-90
2023/10/02 09:03:48;;;;;;;21.83;11.03;;;;;;;26.78;nan;100126.47;4999004;28;20940;-91
2023/10/02 09:06:28;;;;;;;18.77;11.10;;;;;;;26.45;nan;100118.81;4983880;28;21014;-91
2023/10/02 09:09:21;;;;;;;17.00;10.30;;;;;;;26.49;nan;100112.84;5000012;28;20629;-90
2023/10/02 09:11:57;;;;;;;22.07;12.53;;;;;;;26.30;nan;100115.28;4981541;28;20600;-90
2023/10/02 09:17:15;;;;;;;17.60;9.90;;;;;;;25.78;nan;100123.22;4988498;28;20520;-92
2023/10/02 09:19:49;;;;;;;24.00;11.83;;;;;;;25.33;nan;100119.63;4989819;28;20458;-90
2023/10/02 09:22:25;;;;;;;18.87;10.87;;;;;;;25.02;nan;100113.47;4984264;28;20425;-92
2023/10/02 09:28:50;;;;;;;;;;;;;;;;;;;;;
2023/10/02 09:31:48;;;;;;;23.87;11.57;;;;;;;24.94;nan;100104.44;5003523;28;20445;-91
2023/10/02 09:34:28;;;;;;;17.87;10.27;;;;;;;24.99;nan;100103.06;4980776;28;20544;-92
2023/10/02 09:37:49;;;;;;;;;;;;;;;;;;;;;
2023/10/02 09:40:27;;;;;;;23.33;11.50;;;;;;;24.95;nan;100091.81;4986499;28;20831;-92
2023/10/02 09:43:23;;;;;;;17.40;10.10;;;;;;;24.82;nan;100091.59;4984995;28;20810;-90
2023/10/02 09:46:29;;;;;;;19.80;11.87;;;;;;;24.83;nan;100082.53;4975497;28;21057;-91
2023/10/02 09:49:04;;;;;;;22.63;11.70;;;;;;;24.79;nan;100074.00;4948040;28;21025;-92
2023/10/02 09:55:26;;;;;;;21.93;12.60;;;;;;;24.73;nan;100077.38;4978138;28;20460;-90
2023/10/02 09:57:55;;;;;;;19.70;11.80;;;;;;;24.78;nan;100069.63;4950591;28;20443;-91
2023/10/02 10:00:37;;;;;;;20.47;10.00;;;;;;;24.89;nan;100076.44;4966337;28;20425;-90
2023/10/02 10:03:24;;;;;;;15.07;10.30;;;;;;;25.04;nan;100076.50;4969359;28;20452;-92
2023/10/02 10:06:16;;;;;;;23.70;11.30;;;;;;;24.87;nan;100062.31;4974497;28;20513;-90
2023/10/02 10:09:50;;;;;;;22.43;10.63;;;;;;;24.76;nan;100063.56;4977971;28;21123;-91
2023/10/02 10:12:21;;;;;;;20.23;11.30;;;;;;;24.71;nan;100060.63;4966553;28;20885;-91
2023/10/02 10:14:54;;;;;;;22.20;10.87;;;;;;;24.87;nan;100057.81;4966508;28;20457;-91
2023/10/02 10:17:49;;;;;;;18.63;10.37;;;;;;;24.98;nan;100053.88;4972382;28;20548;-90
2023/10/02 10:20:22;;;;;;;18.67;11.07;;;;;;;25.04;nan;100041.56;4952167;28;20439;-90
2023/10/02 10:22:57;;;;;;;20.33;12.87;;;;;;;25.12;nan;100036.09;4951112;28;20449;-90
2023/10/02 10:25:25;;;;;;;20.20;11.57;;;;;;;25.10;nan;100038.13;4971651;28;20442;-89
2023/10/02 10:27:58;;;;;;;24.03;11.63;;;;;;;25.06;nan;100026.06;4974297;28;20878;-89
2023/10/02 10:30:39;;;;;;;21.03;10.97;;;;;;;25.08;nan;100029.41;4963701;28;20449;-89
2023/10/02 10:36:09;;;;;;;22.87;10.67;;;;;;;25.26;nan;100016.50;4970398;28;20950;-91
2023/10/02 10:38:49;;;;;;;19.33;11.13;;;;;;;25.42;nan;100018.19;4959652;28;20442;-90
2023/10/02 10:41:31;;;;;;;19.20;11.10;;;;;;;25.46;nan;100019.50;4975513;28;20443;-90
2023/10/02 10:43:59;;;;;;;19.70;12.20;;;;;;;25.49;nan;100011.06;4971555;28;20443;-90
2023/10/02 10:46:27;;;;;;;18.17;10.47;;;;;;;25.54;nan;100007.81;4970422;28;21220;-90
2023/10/02 10:49:10;;;;;;;25.60;12.80;;;;;;;25.59;nan;100008.09;4974758;28;20461;-90
2023/10/02 10:51:42;;;;;;;18.43;10.83;;;;;;;25.65;nan;100007.34;4957936;28;20460;-91
2023/10/02 10:54:30;;;;;;;20.07;10.43;;;;;;;25.70;nan;100001.41;4974205;28;20510;-91
2023/10/02 10:57:21;;;;;;;24.83;11.20;;;;;;;25.78;nan;100004.00;4943411;28;20452;-92
2023/10/02 11:00:23;;;;;;;26.20;12.03;;;;;;;25.78;nan;100004.00;4950496;28;20440;-90
2023/10/02 11:02:56;;;;;;;25.60;12.07;;;;;;;25.75;nan;99999.00;4966899;28;21073;-88
2023/10/02 11:05:23;;;;;;;22.07;10.87;;;;;;;25.75;nan;99993.63;4967543;28;21134;-92
2023/10/02 11:07:59;;;;;;;22.70;12.10;;;;;;;25.62;nan;99996.97;4972090;28;20489;-92
2023/10/02 11:10:28;;;;;;;23.80;11.57;;;;;;;25.67;nan;99999.94;4969678;28;20467;-92
2023/10/02 11:12:57;;;;;;;29.17;14.80;;;;;;;25.74;nan;99992.78;4969843;28;20519;-91
2023/10/02 11:18:41;;;;;;;23.63;11.63;;;;;;;25.75;nan;99988.25;4965810;28;21175;-91
2023/10/02 11:21:21;;;;;;;21.90;10.80;;;;;;;25.82;nan;99987.31;4975478;28;20472;-92
2023/10/02 11:23:48;;;;;;;26.77;12.80;;;;;;;25.91;nan;99987.22;4984679;28;20503;-92
2023/10/02 11:26:15;;;;;;;22.63;11.80;;;;;;;25.93;nan;99974.44;4989647;28;21066;-91
2023/10/02 11:28:49;;;;;;;20.77;12.63;;;;;;;25.90;nan;99975.63;4995711;28;21099;-91
2023/10/02 11:34:24;;;;;;;24.13;13.57;;;;;;;25.88;nan;99972.28;4967931;28;21615;-90
2023/10/02 11:36:53;;;;;;;25.53;14.00;;;;;;;25.88;nan;99961.53;4958527;28;20821;-90
2023/10/02 11:39:31;;;;;;;23.40;12.03;;;;;;;25.93;nan;99958.28;4967171;28;20458;-90
2023/10/02 11:41:59;;;;;;;27.10;13.40;;;;;;;25.95;nan;99951.69;4971348;28;20465;-90
2023/10/02 11:44:30;;;;;;;25.47;12.93;;;;;;;26.00;nan;99951.09;4969178;28;20529;-90
2023/10/02 11:47:01;;;;;;;24.07;12.40;;;;;;;26.07;nan;99946.63;4971295;28;20501;-91
2023/10/02 11:49:29;;;;;;;24.83;15.10;;;;;;;26.06;nan;99944.97;4952546;28;20429;-90
2023/10/02 11:52:02;;;;;;;23.10;12.63;;;;;;;26.07;nan;99935.88;4964793;28;20465;-91
2023/10/02 11:54:35;;;;;;;24.87;13.10;;;;;;;26.12;nan;99933.44;4970344;28;20523;-90
2023/10/02 11:57:08;;;;;;;22.17;12.53;;;;;;;26.15;nan;99929.53;4980000;28;20420;-90
2023/10/02 11:59:50;;;;;;;24.23;13.03;;;;;;;26.18;nan;99924.59;4972962;28;20462;-90
2023/10/02 12:02:27;;;;;;;23.73;14.10;;;;;;;26.27;nan;99920.75;4983826;28;20432;-90
2023/10/02 12:04:53;;;;;;;20.60;13.43;;;;;;;26.38;nan;99915.88;4971897;28;20493;-90
2023/10/02 12:07:22;;;;;;;22.07;12.27;;;;;;;26.45;nan;99909.53;4970904;28;20465;-91
2023/10/02 12:10:07;;;;;;;;;;;;;;;;;;;;;
2023/10/02 12:12:45;;;;;;;31.50;13.97;;;;;;;26.51;nan;99902.56;4968115;28;20949;-91
2023/10/02 12:15:19;;;;;;;22.20;12.07;;;;;;;26.54;nan;99906.72;4978797;28;20469;-90
2023/10/02 12:17:48;;;;;;;27.50;12.80;;;;;;;26.62;nan;99901.19;4974048;28;20417;-90
2023/10/02 12:20:16;;;;;;;22.10;13.57;;;;;;;26.72;nan;99898.19;4970813;28;20969;-91
2023/10/02 12:22:46;;;;;;;30.00;15.10;;;;;;;26.78;nan;99897.38;4967790;28;21160;-92
2023/10/02 12:25:12;;;;;;;24.03;12.80;;;;;;;26.82;nan;99890.59;4967773;28;21110;-91
2023/10/02 12:27:50;;;;;;;22.83;12.80;;;;;;;26.85;nan;99890.19;4971366;28;20486;-91
2023/10/02 12:30:21;;;;;;;21.10;13.53;;;;;;;26.88;nan;99884.41;4983496;28;20467;-92
2023/10/02 12:33:01;;;;;;;18.33;11.60;;;;;;;26.98;nan;99875.94;4973504;28;20453;-91
2023/10/02 12:35:41;;;;;;;23.13;14.87;;;;;;;27.06;nan;99873.94;4978204;28;20457;-92
2023/10/02 12:38:07;;;;;;;22.73;12.07;;;;;;;27.10;nan;99867.13;4970867;28;20461;-91
2023/10/02 12:40:33;;;;;;;22.33;12.73;;;;;;;27.11;nan;99860.72;4974933;28;20459;-90
2023/10/02 12:43:03;;;;;;;25.97;13.70;;;;;;;27.15;nan;99855.75;4967501;28;20482;-90
2023/10/02 12:45:35;;;;;;;27.20;13.77;;;;;;;27.19;nan;99851.63;4972021;28;20489;-90
2023/10/02 12:48:17;;;;;;;17.73;11.10;;;;;;;27.27;nan;99837.97;4986174;28;20455;-91
2023/10/02 12:50:47;;;;;;;19.90;12.30;;;;;;;27.36;nan;99841.34;5009812;28;20411;-92
2023/10/02 12:53:20;;;;;;;21.40;12.90;;;;;;;27.45;nan;99834.72;4981202;28;20471;-92
2023/10/02 12:56:28;;;;;;;22.40;13.20;;;;;;;27.52;nan;99835.59;4985802;28;20435;-92